TAF Flughafenprognosen

Nürnberg TAF, ausgegeben Fr 27.05. 01:00

TAF EDDN 262300Z 2700/2724 26006KT 9999 SCT045 BECMG 2707/2709 27013KT TEMPO 2709/2716 29015G25KT BECMG 2716/2718 30007KT
GültigkeitVonBisWind in Beaufort
(Knoten)
Wolken
(Meter über Grund)
Sichtweite
(Meter)
Wettererscheinung
Grundvorhersage Fr 27.05. 02:00 Sa 28.05. 02:00 W 2 (6) Wolkig (1400) >= 10000  
Übergang zu Fr 27.05. 09:00 Fr 27.05. 11:00 W 4 (13)      
Vorübergehend Fr 27.05. 11:00 Fr 27.05. 18:00 WNW 4 (15) - 6 (25)      
Übergang zu Fr 27.05. 18:00 Fr 27.05. 20:00 WNW 3 (7)      

 

Hof TAF, ausgegeben Do 26.05. 19:00

TAF EDQM 261700Z 2618/2703 24007KT CAVOK
GültigkeitVonBisWind in Beaufort
(Knoten)
Wolken
(Meter über Grund)
Sichtweite
(Meter)
Wettererscheinung
Grundvorhersage Do 26.05. 20:00 Fr 27.05. 05:00 WSW 3 (7)      

 

Erfurt-Bindersleben TAF, ausgegeben Fr 27.05. 01:00

TAF EDDE 262300Z 2700/2724 24012KT 9999 BKN040 BECMG 2707/2710 28015G30KT BECMG 2717/2719 28012KT
GültigkeitVonBisWind in Beaufort
(Knoten)
Wolken
(Meter über Grund)
Sichtweite
(Meter)
Wettererscheinung
Grundvorhersage Fr 27.05. 02:00 Sa 28.05. 02:00 WSW 4 (12) Stark bewölkt (1200) >= 10000  
Übergang zu Fr 27.05. 09:00 Fr 27.05. 12:00 W 4 (15) - 7 (30)      
Übergang zu Fr 27.05. 19:00 Fr 27.05. 21:00 W 4 (12)      

 

Augsburg TAF, ausgegeben Do 26.05. 19:00

TAF EDMA 261700Z 2618/2703 31006KT 9999 SCT045 BECMG 2619/2621 15004KT
GültigkeitVonBisWind in Beaufort
(Knoten)
Wolken
(Meter über Grund)
Sichtweite
(Meter)
Wettererscheinung
Grundvorhersage Do 26.05. 20:00 Fr 27.05. 05:00 NW 2 (6) Wolkig (1400) >= 10000  
Übergang zu Do 26.05. 21:00 Do 26.05. 23:00 SSO 2 (4)      

 

Frankfurt TAF, ausgegeben Fr 27.05. 01:00

TAF EDDF 262300Z 2700/2806 24007KT 9999 SCT040 BECMG 2703/2706 BKN025 BECMG 2707/2710 28012KT TEMPO 2710/2716 31015G25KT BECMG 2710/2712 FEW035 BECMG 2718/2720 28007KT
GültigkeitVonBisWind in Beaufort
(Knoten)
Wolken
(Meter über Grund)
Sichtweite
(Meter)
Wettererscheinung
Grundvorhersage Fr 27.05. 02:00 Sa 28.05. 08:00 WSW 3 (7) Wolkig (1200) >= 10000  
Übergang zu Fr 27.05. 05:00 Fr 27.05. 08:00   Stark bewölkt (760)    
Übergang zu Fr 27.05. 09:00 Fr 27.05. 12:00 W 4 (12)      
Vorübergehend Fr 27.05. 12:00 Fr 27.05. 18:00 NW 4 (15) - 6 (25)      
Übergang zu Fr 27.05. 12:00 Fr 27.05. 14:00   Leicht bewölkt (1100)    
Übergang zu Fr 27.05. 20:00 Fr 27.05. 22:00 W 3 (7)      

 

Stuttgart TAF, ausgegeben Fr 27.05. 01:00

TAF EDDS 262300Z 2700/2724 24003KT CAVOK BECMG 2707/2710 27012KT TEMPO 2711/2716 29015G25KT BECMG 2718/2720 28005KT
GültigkeitVonBisWind in Beaufort
(Knoten)
Wolken
(Meter über Grund)
Sichtweite
(Meter)
Wettererscheinung
Grundvorhersage Fr 27.05. 02:00 Sa 28.05. 02:00 WSW 2 (3) Nicht signifikant >= 10000  
Übergang zu Fr 27.05. 09:00 Fr 27.05. 12:00 W 4 (12)      
Vorübergehend Fr 27.05. 13:00 Fr 27.05. 18:00 WNW 4 (15) - 6 (25)      
Übergang zu Fr 27.05. 20:00 Fr 27.05. 22:00 W 2 (5)      

 

München TAF, ausgegeben Fr 27.05. 01:00

TAF EDDM 262300Z 2700/2806 21003KT CAVOK BECMG 2707/2709 27013KT TEMPO 2709/2716 31015G25KT BECMG 2717/2720 28006KT PROB30 TEMPO 2720/2801 RA
GültigkeitVonBisWind in Beaufort
(Knoten)
Wolken
(Meter über Grund)
Sichtweite
(Meter)
Wettererscheinung
Grundvorhersage Fr 27.05. 02:00 Sa 28.05. 08:00 SSW 2 (3) Nicht signifikant >= 10000  
Übergang zu Fr 27.05. 09:00 Fr 27.05. 11:00 W 4 (13)      
Vorübergehend Fr 27.05. 11:00 Fr 27.05. 18:00 NW 4 (15) - 6 (25)      
Übergang zu Fr 27.05. 19:00 Fr 27.05. 22:00 W 2 (6)      
Vorübergehend
(Wahrscheinlichkeit 30 %)
Fr 27.05. 22:00 Sa 28.05. 03:00       Regen